Aktualne dane pomiarowe

Uwaga, wersja testowa! Automatyczne pobieranie danych za pomocą narzędzi lub skryptów to umożliwiających jest zabronione.

Dane meteo z obszaru Polski uzyskane na podstawie depesz SYNOP pobieranych co godzinę z NWS. Najedź myszką na symbol przedstawiony w tabeli, aby uzyskać informacje co do jego znaczenia. Prosimy pamiętać, że to testowa wersja strony, która jeszcze nie jest ukończona. Stworzono również jest krótki FAQ dotyczący korzystania z tej podstrony Anomalie temperatury w chwili obecnej odniesione są do okresu referencyjnego 1951-2016. Okres ten będzie później zmieniony na 1981-2010. Kliknij ikonę aby pobrać plik CSV. Kliknij ikonę aby wygenerować mapę synoptyczną dla danego terminu.

Wybierz Datę:    

        

Tarnów (12575)

Dane terminowe dla wybranej stacji. Kliknij datę, aby otrzymać dane z tego terminu dla wszystkich stacji.

TemperaturaZachmurzenieWiatrCiśnienieOpadyPogoda
 Data t td wb tx tn tg rh  Nt Nl Cl Cm Ch ws wd g1 g2 wx mslp ppp ch 24h 12h t ww ww w1 w2  
2019-06-30 23:00:00 19.9 15.7 17.0--- 7722.0--1wx--11014.6 990.2 0.1---------
2019-06-30 22:00:00 21.1 16.3 17.8--- 7423.0--0---01014.7 990.4 0.6---------
2019-06-30 21:00:00 23.7 17.0 19.2--- 6622.0--0---01014.5 990.4 0.6---------
2019-06-30 20:00:00 26.7 17.2 20.4--- 5623.0--2wx---1014.0 990.1 -0.1---------
2019-06-30 19:00:00 28.2 17.1 20.9--- 5124.0--3wx--31013.5 989.8 -0.9---------
2019-06-30 18:00:00 30.3 16.7 21.5 34.7 22.6- 4423.0--2wx--21013.4 989.8 -1.5- 0.012------
2019-06-30 17:00:00 32.8 13.4 20.7--- 3126.0--1wx--11013.6 990.2 -1.7---------
2019-06-30 16:00:00 34.1 11.9 20.5--- 2627.0--1wx--11014.0 990.7 -1.8---------
2019-06-30 15:00:00 34.4 10.3 19.8--- 2322.0--2wx--21014.6 991.3 -1.7---------
2019-06-30 14:00:00 33.7 9.7 19.3--- 2329.0--2wx--21015.3 991.9 -1.7---------
2019-06-30 13:00:00 33.5 10.2 19.5--- 2425.0--1wx--11015.9 992.5 -1.6---------
2019-06-30 12:00:00 32.2 10.3 19.1--- 2622.0--3wx--31016.5 993.0 -1.5- 0.06------
2019-06-30 11:00:00 30.5 10.5 18.5--- 2922.0--2wx--21017.2 993.6 -0.9---------
2019-06-30 10:00:00 29.5 10.6 18.2--- 3121.0--2wx--21017.8 994.1 -0.5---------
2019-06-30 09:00:00 28.1 12.4 18.5--- 3824.0--2wx--21018.4 994.5 -0.1---------
2019-06-30 08:00:00 26.5 12.5 17.9--- 4221.0--3wx--31018.5 994.5 0.1---------
2019-06-30 07:00:00 25.2 13.1 17.7--- 4725.0--2wx--21018.7 994.6 0.5---------
2019-06-30 06:00:00 22.6 13.1 16.7 24.9 13.5 12 5521.0--1wx--11018.9 994.6 0.5- 0.012----- 14.4
2019-06-30 05:00:00 19.4 12.9 15.2--- 6624.0--0---01019.0 994.4 0.4---------
2019-06-30 04:00:00 15.6 13.3 14.0--- 8621.0--0----1019.0 994.1 -0.3---------
2019-06-30 03:00:00 13.5 11.4 12.1--- 8720.0--1wx--11019.2 994.1 -0.4---------
2019-06-30 02:00:00 13.8 11.5 12.2--- 8620.0--0---01019.0 994.0 -0.6---------
2019-06-30 01:00:00 14.2 11.7 12.5--- 8519.0--0---01019.4 994.4 -0.1---------
2019-06-30 00:00:00 14.7 12.0 12.9--- 8416.0--0----1019.5 994.5 0.0---------
2019-06-29 23:00:00 15.4 12.3 13.3--- 8212.0--0----1019.5 994.6 0.1---------
2019-06-29 22:00:00 16.3 12.5 13.8--- 7816.0--0----1019.3 994.5 0.3---------
2019-06-29 21:00:00 17.5 12.6 14.3--- 7319.0--0----1019.2 994.5 0.6---------
2019-06-29 20:00:00 19.6 12.6 15.2--- 6417.0--0---01019.1 994.5 0.5---------
2019-06-29 19:00:00 22.2 12.2 16.0--- 5315.0--0---01018.5 994.2 0.0---------
2019-06-29 18:00:00 24.9 10.0 16.1 26.9 17.3- 3920.0--1wx-811018.0 993.9 -0.5- 0.012------
2019-06-29 17:00:00 26.2 9.1 16.3--- 3427.0--2wx---1018.0 994.0 -1.0---------
2019-06-29 16:00:00 26.4 8.4 16.1--- 3225.0--3wx---1018.2 994.2 -1.3---------
2019-06-29 15:00:00 26.9 8.8 16.4--- 3223.0--2wx-821018.3 994.4 -1.8---------
2019-06-29 14:00:00 25.9 7.9 15.6--- 3227.0--3wx---1019.0 995.0 -1.7---------
2019-06-29 13:00:00 25.8 7.8 15.6--- 3224.0--2wx---1019.6 995.5 -1.3---------
2019-06-29 12:00:00 25.1 6.3 14.7--- 3024.0--2wx-721020.3 996.2 -0.8- 0.06------
2019-06-29 11:00:00 24.1 6.8 14.5--- 3340.0--2wx-721020.9 996.7 -0.6---------
2019-06-29 10:00:00 23.6 7.6 14.6--- 3629.0--2wx--21021.1 996.8 -0.8---------
2019-06-29 09:00:00 22.3 7.3 13.9--- 3830.0--2wx--21021.4 997.0 -0.9---------
2019-06-29 08:00:00 20.9 7.8 13.5--- 4325.0--2wx--21021.8 997.3 -0.7---------
2019-06-29 07:00:00 19.1 6.6 12.2--- 4423.0--1wx--11022.3 997.6 -0.2---------
2019-06-29 06:00:00 17.3 7.6 11.7 21.4 10.6 10 5326.0--1wx--11022.7 997.9 0.5- 0.012----- 8.1
2019-06-29 05:00:00 15.7 8.0 11.2--- 6024.0--1wx--11023.0 998.0 1.0---------
2019-06-29 04:00:00 12.2 10.3 10.9--- 8822.0--0---01023.1 997.8 1.0---------
2019-06-29 03:00:00 10.7 9.1 9.6--- 9016.0--1wx--11022.8 997.4 0.9---------
2019-06-29 02:00:00 12.1 9.7 10.5--- 8516.0--0---01022.3 997.0 0.9---------
2019-06-29 01:00:00 14.0 11.3 12.2--- 8415.0--0---01021.9 996.8 1.0---------
2019-06-29 00:00:00 15.0 11.6 12.7--- 8016.0--1wx--11021.5 996.5 0.8- 0.06------
2.6 ms

 

Print Friendly, PDF & Email